createdAt,value
2023-05-30T00:01:49.991Z,95359.25
2023-05-30T00:04:37.406Z,95363.22
2023-05-30T00:07:24.071Z,95362.50
2023-05-30T00:10:10.747Z,95359.34
2023-05-30T00:12:56.765Z,95369.56
2023-05-30T00:15:43.223Z,95366.09
2023-05-30T00:18:36.134Z,95369.56
2023-05-30T00:21:24.001Z,95367.25
2023-05-30T00:24:10.954Z,95364.97
2023-05-30T00:26:56.920Z,95365.88
2023-05-30T00:29:43.173Z,95362.00
2023-05-30T00:32:29.404Z,95357.22
2023-05-30T00:35:15.728Z,95363.56
2023-05-30T00:38:02.273Z,95362.00
2023-05-30T00:40:48.432Z,95367.91
2023-05-30T00:43:34.753Z,95365.88
2023-05-30T00:46:21.652Z,95362.69
2023-05-30T00:49:09.274Z,95360.41
2023-05-30T00:51:56.547Z,95369.84
2023-05-30T00:54:44.956Z,95371.31
2023-05-30T00:57:35.268Z,95374.06
2023-05-30T01:00:22.588Z,95366.56
2023-05-30T01:03:10.351Z,95364.28
2023-05-30T01:05:57.943Z,95364.28
2023-05-30T01:08:44.033Z,95372.38
2023-05-30T01:11:40.427Z,95374.31
2023-05-30T01:14:58.263Z,95373.44
2023-05-30T01:18:05.771Z,95374.03
2023-05-30T01:21:00.805Z,95374.81
2023-05-30T01:24:27.378Z,95389.59
2023-05-30T01:27:57.225Z,95383.28
2023-05-30T01:30:48.236Z,95378.63
2023-05-30T01:33:36.391Z,95373.50
2023-05-30T01:36:22.974Z,95367.16
2023-05-30T01:39:10.818Z,95368.28
2023-05-30T01:42:18.388Z,95364.25
2023-05-30T01:45:15.522Z,95374.47
2023-05-30T01:48:26.268Z,95369.59
2023-05-30T01:51:17.020Z,95369.59
2023-05-30T01:54:05.122Z,95378.91
2023-05-30T01:56:56.447Z,95369.41
2023-05-30T01:59:43.389Z,95367.03
2023-05-30T02:02:29.684Z,95370.78
2023-05-30T02:05:15.807Z,95377.03
2023-05-30T02:08:05.867Z,95377.75
2023-05-30T02:10:52.330Z,95382.84
2023-05-30T02:13:38.763Z,95372.06
2023-05-30T02:16:25.660Z,95382.44
2023-05-30T02:19:13.671Z,95387.78
2023-05-30T02:21:59.750Z,95384.56
2023-05-30T02:24:45.992Z,95390.03
2023-05-30T02:27:33.171Z,95390.72
2023-05-30T02:30:19.259Z,95394.56
2023-05-30T02:33:08.674Z,95395.97
2023-05-30T02:35:55.723Z,95406.44
2023-05-30T02:38:43.496Z,95396.47
2023-05-30T02:41:29.970Z,95397.25
2023-05-30T02:44:17.026Z,95393.53
2023-05-30T02:47:03.193Z,95411.72
2023-05-30T02:49:49.653Z,95407.84
2023-05-30T02:52:35.944Z,95405.34
2023-05-30T02:55:22.185Z,95417.84
2023-05-30T02:58:28.639Z,95411.53
2023-05-30T03:01:26.293Z,95421.25
2023-05-30T03:04:13.464Z,95419.69
2023-05-30T03:07:03.625Z,95425.56
2023-05-30T03:09:52.484Z,95416.19
2023-05-30T03:12:39.001Z,95410.59
2023-05-30T03:15:25.555Z,95423.56
2023-05-30T03:18:11.800Z,95428.56
2023-05-30T03:20:58.183Z,95423.91
2023-05-30T03:23:44.838Z,95420.59
2023-05-30T03:26:31.693Z,95429.69
2023-05-30T03:29:18.025Z,95422.66
2023-05-30T03:32:05.326Z,95424.91
2023-05-30T03:34:52.152Z,95432.88
2023-05-30T03:37:41.748Z,95430.16
2023-05-30T03:40:27.975Z,95431.72
2023-05-30T03:43:14.340Z,95436.84
2023-05-30T03:46:00.579Z,95441.94
2023-05-30T03:48:47.457Z,95434.88
2023-05-30T03:51:34.940Z,95434.88
2023-05-30T03:54:21.084Z,95447.03
2023-05-30T03:57:07.925Z,95443.63
2023-05-30T03:59:56.500Z,95445.34
2023-05-30T04:02:45.027Z,95450.00
2023-05-30T04:05:31.167Z,95453.16
2023-05-30T04:08:17.497Z,95458.59
2023-05-30T04:11:04.077Z,95456.25
2023-05-30T04:13:53.608Z,95461.00
2023-05-30T04:16:39.735Z,95467.03
2023-05-30T04:19:25.790Z,95463.97
2023-05-30T04:22:11.930Z,95463.69
2023-05-30T04:24:58.353Z,95458.94
2023-05-30T04:27:49.569Z,95465.53
2023-05-30T04:30:38.647Z,95463.25
2023-05-30T04:33:25.982Z,95466.69
2023-05-30T04:36:19.917Z,95475.28
2023-05-30T04:39:07.655Z,95466.75
2023-05-30T04:41:56.119Z,95465.97
2023-05-30T04:44:43.627Z,95467.56
2023-05-30T04:47:30.992Z,95469.16
2023-05-30T04:50:18.185Z,95467.56
2023-05-30T04:53:04.741Z,95460.53
2023-05-30T04:55:51.677Z,95463.47
2023-05-30T04:58:37.672Z,95463.47
2023-05-30T05:01:25.441Z,95472.44
2023-05-30T05:04:13.164Z,95471.41
2023-05-30T05:06:59.322Z,95462.53
2023-05-30T05:09:45.842Z,95456.88
2023-05-30T05:12:32.083Z,95466.06
2023-05-30T05:15:21.423Z,95468.50
2023-05-30T05:18:15.743Z,95468.63
2023-05-30T05:21:04.207Z,95466.81
2023-05-30T05:23:50.907Z,95470.41
2023-05-30T05:26:37.500Z,95467.44
2023-05-30T05:29:23.557Z,95461.28
2023-05-30T05:32:10.644Z,95466.03
2023-05-30T05:34:56.622Z,95455.38
2023-05-30T05:37:42.365Z,95467.63
2023-05-30T05:40:29.233Z,95464.44
2023-05-30T05:43:15.319Z,95469.66
2023-05-30T05:46:01.041Z,95475.59
2023-05-30T05:48:46.961Z,95480.34
2023-05-30T05:51:32.940Z,95490.56
2023-05-30T05:54:18.810Z,95481.91
2023-05-30T05:57:07.371Z,95485.31
2023-05-30T05:59:54.487Z,95489.59
2023-05-30T06:02:40.882Z,95486.88
2023-05-30T06:05:27.658Z,95484.50
2023-05-30T06:08:13.802Z,95486.19
2023-05-30T06:10:59.846Z,95491.28
2023-05-30T06:13:46.820Z,95488.66
2023-05-30T06:16:32.956Z,95500.47
2023-05-30T06:19:18.883Z,95495.00
2023-05-30T06:22:05.025Z,95496.59
2023-05-30T06:24:51.028Z,95492.72
2023-05-30T06:27:37.187Z,95493.63
2023-05-30T06:30:23.337Z,95503.84
2023-05-30T06:33:09.420Z,95499.94
2023-05-30T06:35:55.496Z,95492.13
2023-05-30T06:38:41.408Z,95492.19
2023-05-30T06:41:27.836Z,95482.19
2023-05-30T06:44:13.985Z,95496.28
2023-05-30T06:47:00.099Z,95489.69
2023-05-30T06:49:46.254Z,95481.47
2023-05-30T06:52:32.266Z,95490.69
2023-05-30T06:55:18.043Z,95483.72
2023-05-30T06:58:06.793Z,95497.56
2023-05-30T07:00:52.752Z,95495.25
2023-05-30T07:03:38.507Z,95495.38
2023-05-30T07:06:25.097Z,95492.25
2023-05-30T07:09:11.270Z,95492.00
2023-05-30T07:11:57.213Z,95489.44
2023-05-30T07:14:43.056Z,95489.53
2023-05-30T07:17:29.117Z,95489.34
2023-05-30T07:20:22.137Z,95490.69
2023-05-30T07:23:08.155Z,95488.44
2023-05-30T07:25:54.462Z,95476.00
2023-05-30T07:28:40.212Z,95471.44
2023-05-30T07:31:26.095Z,95480.22
2023-05-30T07:34:12.339Z,95481.53
2023-05-30T07:36:58.226Z,95479.69
2023-05-30T07:39:44.845Z,95477.44
2023-05-30T07:42:30.894Z,95475.25
2023-05-30T07:45:17.062Z,95483.19
2023-05-30T07:48:03.375Z,95470.09
2023-05-30T07:50:49.383Z,95463.09
2023-05-30T07:53:38.036Z,95473.47
2023-05-30T07:56:24.116Z,95471.19
2023-05-30T07:59:10.024Z,95470.56
2023-05-30T08:01:55.800Z,95468.22
2023-05-30T08:04:44.899Z,95469.97
2023-05-30T08:07:33.917Z,95466.94
2023-05-30T08:10:19.976Z,95469.38
2023-05-30T08:13:05.808Z,95456.97
2023-05-30T08:15:52.884Z,95454.66
2023-05-30T08:18:39.023Z,95449.19
2023-05-30T08:21:24.719Z,95457.97
2023-05-30T08:24:13.315Z,95464.31
2023-05-30T08:27:01.597Z,95461.25
2023-05-30T08:29:50.231Z,95458.63
2023-05-30T08:32:37.192Z,95457.56
2023-05-30T08:35:22.924Z,95454.06
2023-05-30T08:38:08.851Z,95459.25
2023-05-30T08:40:55.098Z,95456.63
2023-05-30T08:43:41.129Z,95453.16
2023-05-30T08:46:27.900Z,95450.53
2023-05-30T08:49:18.289Z,95451.84
2023-05-30T08:52:04.841Z,95451.22
2023-05-30T08:55:03.546Z,95448.16
2023-05-30T08:57:53.127Z,95447.56
2023-05-30T09:00:39.307Z,95447.28
2023-05-30T09:03:25.716Z,95441.09
2023-05-30T09:06:13.229Z,95430.69
2023-05-30T09:08:59.014Z,95435.53
2023-05-30T09:11:44.873Z,95438.81
2023-05-30T09:14:30.945Z,95438.19
2023-05-30T09:17:17.153Z,95435.16
2023-05-30T09:20:03.824Z,95433.69
2023-05-30T09:22:50.029Z,95429.44
2023-05-30T09:25:46.345Z,95438.53
2023-05-30T09:28:34.263Z,95422.47
2023-05-30T09:31:22.457Z,95426.06
2023-05-30T09:34:08.698Z,95416.63
2023-05-30T09:36:56.413Z,95408.03
2023-05-30T09:39:42.681Z,95406.50
2023-05-30T09:42:39.226Z,95408.88
2023-05-30T09:45:26.009Z,95405.84
2023-05-30T09:48:18.854Z,95403.56
2023-05-30T09:51:05.270Z,95397.28
2023-05-30T09:54:05.483Z,95391.44
2023-05-30T09:56:53.795Z,95391.91
2023-05-30T09:59:40.227Z,95384.94
2023-05-30T10:02:26.507Z,95382.63
2023-05-30T10:05:20.774Z,95372.50
2023-05-30T10:08:07.229Z,95375.31
2023-05-30T10:10:53.050Z,95370.28
2023-05-30T10:13:39.610Z,95375.84
2023-05-30T10:16:26.465Z,95372.72
2023-05-30T10:19:16.749Z,95362.59
2023-05-30T10:24:52.788Z,95351.28
2023-05-30T10:27:55.474Z,95343.91
2023-05-30T10:30:41.552Z,95347.84
2023-05-30T10:33:43.921Z,95342.38
2023-05-30T10:36:36.007Z,95330.63
2023-05-30T10:39:30.325Z,95336.19
2023-05-30T10:42:45.641Z,95336.19
2023-05-30T10:45:56.341Z,95329.97
2023-05-30T10:49:09.657Z,95326.81
2023-05-30T10:52:32.633Z,95321.34
2023-05-30T10:55:18.481Z,95320.22
2023-05-30T10:58:37.328Z,95315.16
2023-05-30T11:01:26.100Z,95309.69
2023-05-30T11:04:14.254Z,95311.28
2023-05-30T11:07:03.275Z,95298.66
2023-05-30T11:10:09.105Z,95295.56
2023-05-30T11:13:09.300Z,95295.56
2023-05-30T11:15:56.339Z,95294.00
2023-05-30T11:18:42.345Z,95287.69
2023-05-30T11:22:03.209Z,95291.69
2023-05-30T11:25:23.679Z,95283.81
2023-05-30T11:28:13.914Z,95280.66
2023-05-30T11:31:00.259Z,95281.03
2023-05-30T11:33:52.901Z,95270.41
2023-05-30T11:36:40.189Z,95266.47
2023-05-30T11:39:26.619Z,95268.06
2023-05-30T11:42:12.886Z,95260.94
2023-05-30T11:44:59.008Z,95260.16
2023-05-30T11:47:46.664Z,95263.31
2023-05-30T11:50:38.614Z,95258.97
2023-05-30T11:53:24.463Z,95263.72
2023-05-30T11:56:10.272Z,95258.16
2023-05-30T11:58:56.501Z,95245.97
2023-05-30T12:01:42.524Z,95252.59
2023-05-30T12:04:31.598Z,95251.41
2023-05-30T12:07:17.981Z,95255.75
2023-05-30T12:10:03.960Z,95245.88
2023-05-30T12:12:50.238Z,95243.50
2023-05-30T12:15:39.878Z,95239.56
2023-05-30T12:18:28.499Z,95244.28
2023-05-30T12:21:14.649Z,95226.91
2023-05-30T12:24:10.017Z,95222.91
2023-05-30T12:26:58.141Z,95225.56
2023-05-30T12:29:44.244Z,95219.59
2023-05-30T12:32:31.053Z,95220.28
2023-05-30T12:35:18.358Z,95222.13
2023-05-30T12:38:05.443Z,95223.59
2023-05-30T12:40:51.600Z,95227.81
2023-05-30T12:43:37.939Z,95224.56
2023-05-30T12:46:27.521Z,95217.81
2023-05-30T12:49:13.672Z,95218.84
2023-05-30T12:51:59.767Z,95219.53
2023-05-30T12:54:46.681Z,95217.00
2023-05-30T12:57:32.746Z,95208.88
2023-05-30T13:00:21.095Z,95207.88
2023-05-30T13:03:07.139Z,95202.56
2023-05-30T13:05:53.053Z,95200.00
2023-05-30T13:08:39.066Z,95191.13
2023-05-30T13:11:25.248Z,95185.84
2023-05-30T13:14:11.314Z,95194.41
2023-05-30T13:16:58.389Z,95190.44
2023-05-30T13:19:44.628Z,95185.72
2023-05-30T13:22:30.484Z,95181.03
2023-05-30T13:25:16.789Z,95191.63
2023-05-30T13:28:02.786Z,95191.06
2023-05-30T13:30:48.540Z,95188.44
2023-05-30T13:33:34.598Z,95174.00
2023-05-30T13:36:25.181Z,95178.66
2023-05-30T13:39:11.292Z,95171.50
2023-05-30T13:41:58.920Z,95185.38
2023-05-30T13:44:45.123Z,95184.50
2023-05-30T13:47:31.390Z,95173.41
2023-05-30T13:50:19.490Z,95175.50
2023-05-30T13:53:06.208Z,95188.75
2023-05-30T13:55:52.244Z,95191.34
2023-05-30T13:58:38.380Z,95191.41
2023-05-30T14:01:25.149Z,95195.63
2023-05-30T14:04:11.719Z,95189.16
2023-05-30T14:06:57.717Z,95191.34
2023-05-30T14:09:43.644Z,95200.94
2023-05-30T14:12:29.766Z,95191.41
2023-05-30T14:15:16.473Z,95189.44
2023-05-30T14:18:04.183Z,95196.09
2023-05-30T14:20:51.097Z,95185.34
2023-05-30T14:23:37.252Z,95208.81
2023-05-30T14:26:23.276Z,95215.75
2023-05-30T14:29:09.361Z,95223.78
2023-05-30T14:31:55.361Z,95215.63
2023-05-30T14:34:41.085Z,95211.81
2023-05-30T14:37:27.017Z,95230.88
2023-05-30T14:40:14.177Z,95233.34
2023-05-30T14:43:00.175Z,95234.63
2023-05-30T14:45:46.211Z,95225.22
2023-05-30T14:48:32.575Z,95235.53
2023-05-30T14:51:18.758Z,95251.38
2023-05-30T14:54:06.131Z,95267.97
2023-05-30T14:56:52.752Z,95286.53
2023-05-30T14:59:38.894Z,95303.50
2023-05-30T15:02:26.071Z,95290.91
2023-05-30T15:05:11.952Z,95301.09
2023-05-30T15:07:57.785Z,95300.66
2023-05-30T15:10:44.764Z,95308.88
2023-05-30T15:14:08.133Z,95290.72
2023-05-30T15:17:00.136Z,95292.16
2023-05-30T15:19:51.674Z,95281.81
2023-05-30T15:22:39.007Z,95267.41
2023-05-30T15:25:26.684Z,95313.13
2023-05-30T15:28:15.732Z,95262.47
2023-05-30T15:31:06.560Z,95289.16
2023-05-30T15:33:54.811Z,95262.63
2023-05-30T15:36:41.939Z,95268.88
2023-05-30T15:39:28.437Z,95281.91
2023-05-30T15:42:15.180Z,95292.19
2023-05-30T15:45:01.308Z,95298.50
2023-05-30T15:47:47.417Z,95296.91
2023-05-30T15:50:33.353Z,95296.81
2023-05-30T15:53:19.511Z,95314.09
2023-05-30T15:56:06.175Z,95315.63
2023-05-30T15:58:52.444Z,95326.56
2023-05-30T16:01:40.502Z,95333.59
2023-05-30T16:04:26.504Z,95349.25
2023-05-30T16:07:12.662Z,95350.72
2023-05-30T16:09:59.189Z,95356.16
2023-05-30T16:12:45.338Z,95355.25
2023-05-30T16:15:32.711Z,95364.69
2023-05-30T16:18:18.534Z,95367.00
2023-05-30T16:21:04.723Z,95349.56
2023-05-30T16:23:50.762Z,95381.03
2023-05-30T16:26:36.688Z,95397.09
2023-05-30T16:29:23.007Z,95407.63
2023-05-30T16:32:08.909Z,95426.84
2023-05-30T16:34:54.918Z,95440.50
2023-05-30T16:37:40.997Z,95449.91
2023-05-30T16:40:27.036Z,95462.41
2023-05-30T16:43:14.054Z,95467.06
2023-05-30T16:46:00.137Z,95470.91
2023-05-30T16:48:46.105Z,95474.38
2023-05-30T16:51:32.829Z,95469.16
2023-05-30T16:54:19.433Z,95465.06
2023-05-30T16:57:06.731Z,95472.06
2023-05-30T16:59:52.812Z,95472.78
2023-05-30T17:02:38.948Z,95475.81
2023-05-30T17:05:25.588Z,95478.13
2023-05-30T17:08:13.056Z,95470.16
2023-05-30T17:11:01.210Z,95476.19
2023-05-30T17:13:47.194Z,95482.88
2023-05-30T17:16:33.836Z,95504.19
2023-05-30T17:19:28.967Z,95502.75
2023-05-30T17:22:16.230Z,95521.53
2023-05-30T17:25:02.401Z,95534.84
2023-05-30T17:27:49.294Z,95537.72
2023-05-30T17:30:35.884Z,95549.47
2023-05-30T17:33:21.827Z,95550.72
2023-05-30T17:36:08.022Z,95554.59
2023-05-30T17:38:55.374Z,95552.59
2023-05-30T17:41:41.231Z,95559.91
2023-05-30T17:44:27.239Z,95561.47
2023-05-30T17:47:13.769Z,95569.03
2023-05-30T17:50:00.028Z,95569.47
2023-05-30T17:52:46.680Z,95567.56
2023-05-30T17:55:33.098Z,95567.28
2023-05-30T17:58:19.253Z,95556.31
2023-05-30T18:01:05.720Z,95556.44
2023-05-30T18:03:52.219Z,95553.34
2023-05-30T18:06:38.211Z,95547.44
2023-05-30T18:09:25.912Z,95553.34
2023-05-30T18:12:11.955Z,95560.78
2023-05-30T18:14:58.085Z,95561.13
2023-05-30T18:17:44.193Z,95573.28
2023-05-30T18:20:30.201Z,95556.75
2023-05-30T18:23:16.008Z,95561.81
2023-05-30T18:26:05.146Z,95563.41
2023-05-30T18:28:53.985Z,95573.19
2023-05-30T18:31:41.166Z,95568.44
2023-05-30T18:34:30.265Z,95561.69
2023-05-30T18:37:17.187Z,95563.25
2023-05-30T18:40:04.123Z,95556.91
2023-05-30T18:42:50.205Z,95555.31
2023-05-30T18:45:36.065Z,95547.34
2023-05-30T18:48:35.644Z,95550.53
2023-05-30T18:51:28.784Z,95549.69
2023-05-30T18:54:15.142Z,95542.53
2023-05-30T18:57:01.097Z,95545.19
2023-05-30T18:59:47.061Z,95547.09
2023-05-30T19:02:33.224Z,95555.66
2023-05-30T19:05:19.627Z,95555.22
2023-05-30T19:08:06.423Z,95555.94
2023-05-30T19:10:53.692Z,95555.13
2023-05-30T19:13:39.678Z,95546.88
2023-05-30T19:16:25.526Z,95554.28
2023-05-30T19:19:11.832Z,95540.94
2023-05-30T19:21:57.995Z,95543.59
2023-05-30T19:24:44.182Z,95529.41
2023-05-30T19:27:30.449Z,95549.06
2023-05-30T19:30:16.801Z,95545.50
2023-05-30T19:33:05.227Z,95540.00
2023-05-30T19:35:51.518Z,95538.88
2023-05-30T19:38:37.818Z,95541.16
2023-05-30T19:41:25.337Z,95531.63
2023-05-30T19:44:11.621Z,95539.41
2023-05-30T19:46:58.065Z,95536.66
2023-05-30T19:49:44.049Z,95531.84
2023-05-30T19:52:29.885Z,95540.06
2023-05-30T19:55:16.901Z,95541.72
2023-05-30T19:58:04.002Z,95535.81
2023-05-30T20:00:50.932Z,95545.63
2023-05-30T20:03:37.264Z,95545.63
2023-05-30T20:06:23.601Z,95548.72
2023-05-30T20:09:10.475Z,95535.22
2023-05-30T20:11:57.366Z,95550.13
2023-05-30T20:14:43.489Z,95547.78
2023-05-30T20:17:29.532Z,95545.38
2023-05-30T20:20:15.810Z,95547.78
2023-05-30T20:23:08.663Z,95553.94
2023-05-30T20:26:04.856Z,95557.84
2023-05-30T20:28:50.962Z,95559.69
2023-05-30T20:31:36.983Z,95560.84
2023-05-30T20:34:23.158Z,95554.22
2023-05-30T20:37:09.283Z,95560.41
2023-05-30T20:39:55.782Z,95560.41
2023-05-30T20:42:41.808Z,95564.66
2023-05-30T20:45:27.988Z,95568.44
2023-05-30T20:48:14.358Z,95565.28
2023-05-30T20:51:00.967Z,95570.03
2023-05-30T20:53:47.401Z,95576.22
2023-05-30T20:56:33.671Z,95569.78
2023-05-30T20:59:19.421Z,95571.19
2023-05-30T21:02:05.724Z,95571.53
2023-05-30T21:04:52.139Z,95581.88
2023-05-30T21:07:40.022Z,95583.63
2023-05-30T21:10:26.155Z,95569.69
2023-05-30T21:13:12.172Z,95579.03
2023-05-30T21:15:58.070Z,95589.00
2023-05-30T21:18:44.103Z,95586.19
2023-05-30T21:21:30.025Z,95604.53
2023-05-30T21:24:16.184Z,95590.78
2023-05-30T21:27:06.410Z,95589.44
2023-05-30T21:29:52.414Z,95588.19
2023-05-30T21:32:38.622Z,95598.09
2023-05-30T21:35:24.635Z,95597.19
2023-05-30T21:38:10.720Z,95581.59
2023-05-30T21:40:56.746Z,95586.97
2023-05-30T21:43:42.760Z,95580.59
2023-05-30T21:46:28.955Z,95584.25
2023-05-30T21:49:15.773Z,95586.88
2023-05-30T21:52:03.365Z,95593.81
2023-05-30T21:54:49.714Z,95588.28
2023-05-30T21:57:40.916Z,95586.34
2023-05-30T22:00:29.384Z,95591.53
2023-05-30T22:03:15.721Z,95598.59
2023-05-30T22:06:01.565Z,95601.34
2023-05-30T22:08:47.543Z,95594.72
2023-05-30T22:11:33.719Z,95600.66
2023-05-30T22:14:20.310Z,95599.84
2023-05-30T22:17:06.742Z,95592.34
2023-05-30T22:19:52.533Z,95602.66
2023-05-30T22:22:38.421Z,95602.59
2023-05-30T22:25:26.501Z,95604.97
2023-05-30T22:28:13.005Z,95594.03
2023-05-30T22:30:59.257Z,95593.75
2023-05-30T22:33:45.569Z,95599.69
2023-05-30T22:36:32.688Z,95602.06
2023-05-30T22:39:18.429Z,95591.72
2023-05-30T22:42:04.502Z,95588.28
2023-05-30T22:44:50.820Z,95590.56
2023-05-30T22:47:36.970Z,95583.44
2023-05-30T22:50:22.775Z,95586.63
2023-05-30T22:53:08.974Z,95587.78
2023-05-30T22:55:54.762Z,95581.06
2023-05-30T22:58:40.646Z,95583.78
2023-05-30T23:01:27.103Z,95570.66
2023-05-30T23:04:13.372Z,95581.31
2023-05-30T23:06:59.579Z,95574.97
2023-05-30T23:09:45.702Z,95578.16
2023-05-30T23:12:31.832Z,95584.47
2023-05-30T23:15:17.621Z,95575.41
2023-05-30T23:18:03.602Z,95576.63
2023-05-30T23:20:49.920Z,95564.03
2023-05-30T23:23:36.419Z,95567.22
2023-05-30T23:26:22.068Z,95578.16
2023-05-30T23:29:09.384Z,95577.25
2023-05-30T23:31:55.561Z,95556.53
2023-05-30T23:34:41.741Z,95563.03
2023-05-30T23:37:27.654Z,95565.88
2023-05-30T23:40:13.394Z,95561.53
2023-05-30T23:42:59.254Z,95561.47
2023-05-30T23:45:45.297Z,95556.59
2023-05-30T23:48:31.511Z,95554.22
2023-05-30T23:51:18.055Z,95559.66
2023-05-30T23:54:04.057Z,95553.41
2023-05-30T23:56:50.061Z,95547.84
2023-05-30T23:59:36.541Z,95561.84
